Time;durP1;ratioP1;P1;durP2;ratioP2;P2;SDS_P1;SDS_P2;PMS_P1;PMS_P2;Temp;Humidity;BMP_temperature;BMP_pressure;BME280_temperature;BME280_humidity;BME280_pressure;Samples;Min_cycle;Max_cycle;Signal;HPM_P1;HPM_P2
2021/12/03 00:00:53;;;;;;;4.35;1.05;;;2.80;99.90;;;;;;4844374;29;20486;-89
2021/12/03 00:03:19;;;;;;;6.45;1.00;;;2.70;99.90;;;;;;4844456;29;20058;-89
2021/12/03 00:05:45;;;;;;;7.40;1.33;;;2.60;99.90;;;;;;4843968;29;20160;-89
2021/12/03 00:08:11;;;;;;;7.03;0.93;;;2.60;99.90;;;;;;4844380;29;20162;-89
2021/12/03 00:10:38;;;;;;;5.70;1.10;;;2.50;99.90;;;;;;4844053;29;20050;-90
2021/12/03 00:13:06;;;;;;;6.30;1.25;;;2.50;99.90;;;;;;4844196;29;20105;-90
2021/12/03 00:15:33;;;;;;;4.68;1.33;;;2.50;99.90;;;;;;4844174;29;20486;-89
2021/12/03 00:17:59;;;;;;;6.93;1.48;;;2.50;99.90;;;;;;4844212;29;20110;-89
2021/12/03 00:20:26;;;;;;;5.25;1.35;;;2.50;99.90;;;;;;4844206;29;20448;-90
2021/12/03 00:22:55;;;;;;;4.97;1.42;;;2.50;99.90;;;;;;4844286;29;20597;-89
2021/12/03 00:25:21;;;;;;;6.43;1.30;;;2.50;99.90;;;;;;4844239;29;20049;-90
2021/12/03 00:27:47;;;;;;;6.00;1.50;;;2.50;99.90;;;;;;4843874;29;20042;-90
2021/12/03 00:30:15;;;;;;;5.47;1.58;;;2.60;99.90;;;;;;4843836;29;20057;-90
2021/12/03 00:32:41;;;;;;;4.70;1.05;;;2.60;99.90;;;;;;4843691;29;20057;-89
2021/12/03 00:35:09;;;;;;;11.00;1.70;;;2.60;99.90;;;;;;4843947;29;20049;-90
2021/12/03 00:37:37;;;;;;;10.52;2.17;;;2.60;99.90;;;;;;4843624;29;20487;-90
2021/12/03 00:40:05;;;;;;;7.78;1.30;;;2.60;99.90;;;;;;4843739;29;20054;-90
2021/12/03 00:42:31;;;;;;;6.78;1.35;;;2.70;99.90;;;;;;4843981;29;20046;-90
2021/12/03 00:44:57;;;;;;;12.00;1.83;;;2.70;99.90;;;;;;4843722;29;20062;-90
2021/12/03 00:47:24;;;;;;;9.18;1.75;;;2.70;99.90;;;;;;4843477;29;20048;-89
2021/12/03 00:49:49;;;;;;;9.15;2.28;;;2.70;99.90;;;;;;4843708;29;20098;-89
2021/12/03 00:52:16;;;;;;;5.57;1.30;;;2.70;99.90;;;;;;4843337;29;20045;-89
2021/12/03 00:54:42;;;;;;;9.35;1.48;;;2.70;99.90;;;;;;4843479;29;20133;-89
2021/12/03 00:57:07;;;;;;;5.70;1.52;;;2.70;99.90;;;;;;4843439;29;20141;-89
2021/12/03 00:59:35;;;;;;;8.82;1.42;;;2.70;99.90;;;;;;4843393;29;20042;-89
2021/12/03 01:02:01;;;;;;;8.38;1.77;;;2.70;99.90;;;;;;4843129;29;20052;-89
2021/12/03 01:04:27;;;;;;;3.92;1.30;;;2.70;99.90;;;;;;4843526;29;20046;-89
2021/12/03 01:06:53;;;;;;;8.52;1.02;;;2.80;99.90;;;;;;4844426;29;20399;-89
2021/12/03 01:09:20;;;;;;;5.05;1.42;;;2.70;99.90;;;;;;4843417;29;20110;-89
2021/12/03 01:11:47;;;;;;;9.32;1.42;;;2.70;99.90;;;;;;4843021;29;20410;-89
2021/12/03 01:14:12;;;;;;;5.53;1.67;;;2.70;99.90;;;;;;4843137;29;20042;-89
2021/12/03 01:16:38;;;;;;;5.85;1.45;;;2.70;99.90;;;;;;4843179;29;20057;-89
2021/12/03 01:19:04;;;;;;;8.27;1.88;;;2.70;99.90;;;;;;4843240;29;20042;-89
2021/12/03 01:21:30;;;;;;;4.30;1.27;;;2.70;99.90;;;;;;4842891;29;20045;-89
2021/12/03 01:23:56;;;;;;;3.28;1.15;;;2.70;99.90;;;;;;4843424;29;20052;-89
2021/12/03 01:26:23;;;;;;;7.07;1.27;;;2.70;99.90;;;;;;4842850;29;20061;-89
2021/12/03 01:28:49;;;;;;;4.00;1.40;;;2.70;99.90;;;;;;4842738;29;20073;-89
2021/12/03 01:31:16;;;;;;;5.13;1.40;;;2.70;99.90;;;;;;4842791;29;20081;-89
2021/12/03 01:33:43;;;;;;;7.13;1.15;;;2.70;99.90;;;;;;4842957;29;20084;-89
2021/12/03 01:36:09;;;;;;;3.85;1.15;;;2.70;99.90;;;;;;4842894;29;20049;-89
2021/12/03 01:38:35;;;;;;;5.85;1.13;;;2.70;99.90;;;;;;4842631;29;20458;-88
2021/12/03 01:41:01;;;;;;;7.35;1.10;;;2.90;99.90;;;;;;4842573;29;20041;-89
2021/12/03 01:43:27;;;;;;;5.68;1.10;;;2.90;99.90;;;;;;4842627;29;20053;-89
2021/12/03 01:45:58;;;;;;;9.32;3.28;;;3.00;99.90;;;;;;4842667;29;20141;-89
2021/12/03 01:48:25;;;;;;;5.97;1.17;;;3.00;99.90;;;;;;4842670;29;20190;-89
2021/12/03 01:50:52;;;;;;;7.05;1.30;;;3.00;99.90;;;;;;4842310;29;20053;-89
2021/12/03 01:53:22;;;;;;;3.85;0.90;;;3.00;99.90;;;;;;4842748;29;20391;-89
2021/12/03 01:55:48;;;;;;;4.63;1.10;;;2.90;99.90;;;;;;4842470;29;20050;-89
2021/12/03 01:58:15;;;;;;;7.25;1.05;;;2.90;99.90;;;;;;4842256;29;20494;-89
2021/12/03 02:00:53;;;;;;;4.60;0.95;;;2.90;99.90;;;;;;4842227;29;20057;-90
2021/12/03 02:03:26;;;;;;;9.43;1.55;;;2.90;99.90;;;;;;4842627;29;20053;-90
2021/12/03 02:05:53;;;;;;;3.58;1.23;;;2.90;99.90;;;;;;4842068;29;20182;-90
2021/12/03 02:08:18;;;;;;;6.07;1.13;;;2.80;99.90;;;;;;4842305;29;20514;-90
2021/12/03 02:10:45;;;;;;;8.52;1.13;;;2.90;99.90;;;;;;4841955;29;20115;-90
2021/12/03 02:13:12;;;;;;;5.80;1.45;;;2.80;99.90;;;;;;4842268;29;20049;-90
2021/12/03 02:15:39;;;;;;;8.98;1.15;;;2.80;99.90;;;;;;4842111;29;20053;-90
2021/12/03 02:18:07;;;;;;;6.57;1.48;;;2.70;99.90;;;;;;4842271;29;20061;-90
2021/12/03 02:20:33;;;;;;;6.32;1.73;;;2.80;99.90;;;;;;4842351;29;20062;-90
2021/12/03 02:22:59;;;;;;;3.45;0.80;;;2.80;99.90;;;;;;4842143;29;20467;-89
2021/12/03 02:25:26;;;;;;;7.82;0.98;;;2.80;99.90;;;;;;4841813;29;20392;-89
2021/12/03 02:27:57;;;;;;;6.82;2.13;;;2.80;99.90;;;;;;4842121;29;20050;-89
2021/12/03 02:30:25;;;;;;;4.55;0.70;;;2.80;99.90;;;;;;4842149;29;20052;-89
2021/12/03 02:32:52;;;;;;;6.13;1.52;;;2.80;99.90;;;;;;4841847;29;20081;-89
2021/12/03 02:35:19;;;;;;;6.13;0.90;;;2.70;99.90;;;;;;4841552;29;20046;-90
2021/12/03 02:37:45;;;;;;;9.88;1.30;;;2.70;99.90;;;;;;4842172;29;20049;-90
2021/12/03 02:40:14;;;;;;;7.85;1.55;;;2.70;99.90;;;;;;4841797;29;20516;-91
2021/12/03 02:42:40;;;;;;;5.22;1.10;;;2.70;99.90;;;;;;4841842;29;20049;-89
2021/12/03 02:45:07;;;;;;;8.45;2.35;;;2.70;99.90;;;;;;4842170;29;20054;-91
2021/12/03 02:47:33;;;;;;;6.28;1.13;;;2.80;99.90;;;;;;4842936;29;20053;-90
2021/12/03 02:49:59;;;;;;;5.75;0.88;;;2.70;99.90;;;;;;4841970;29;20046;-91
2021/12/03 02:52:25;;;;;;;4.80;1.00;;;2.80;99.90;;;;;;4841588;29;20046;-90
2021/12/03 02:54:52;;;;;;;10.85;1.95;;;2.70;99.90;;;;;;4826603;29;20103;-90
2021/12/03 02:57:17;;;;;;;14.85;1.27;;;2.70;99.90;;;;;;4841590;29;20137;-90
2021/12/03 02:59:43;;;;;;;5.10;1.25;;;2.80;99.90;;;;;;4841686;29;20128;-91
2021/12/03 03:02:09;;;;;;;3.15;1.13;;;2.80;99.90;;;;;;4843850;29;20583;-91
2021/12/03 03:04:35;;;;;;;4.05;0.98;;;2.70;99.90;;;;;;4845418;29;20054;-91
2021/12/03 03:07:01;;;;;;;5.25;1.42;;;2.80;99.90;;;;;;4845614;29;20117;-91
2021/12/03 03:09:27;;;;;;;8.30;1.00;;;2.80;99.90;;;;;;4845622;29;20065;-91
2021/12/03 03:11:53;;;;;;;10.30;1.58;;;2.80;99.90;;;;;;4845372;29;20053;-90
2021/12/03 03:14:19;;;;;;;10.20;1.83;;;2.80;99.90;;;;;;4845364;29;20050;-91
2021/12/03 03:16:47;;;;;;;5.85;1.52;;;2.70;99.90;;;;;;4845453;29;20042;-90
2021/12/03 03:19:17;;;;;;;7.88;1.00;;;2.70;99.90;;;;;;4844989;29;20194;-91
2021/12/03 03:21:44;;;;;;;4.35;0.75;;;2.70;99.90;;;;;;4845132;29;20050;-90
2021/12/03 03:24:10;;;;;;;6.80;0.98;;;2.70;99.90;;;;;;4845343;29;20042;-91
2021/12/03 03:26:39;;;;;;;4.95;0.80;;;2.70;99.90;;;;;;4845019;29;20402;-90
2021/12/03 03:29:07;;;;;;;7.03;1.08;;;2.80;99.90;;;;;;4844946;29;20049;-91
2021/12/03 03:31:34;;;;;;;10.30;2.55;;;2.70;99.90;;;;;;4844905;29;20046;-91
2021/12/03 03:34:01;;;;;;;6.00;1.30;;;2.70;99.90;;;;;;4845075;29;20049;-90
2021/12/03 03:36:26;;;;;;;6.40;1.10;;;2.70;99.90;;;;;;4845087;29;20041;-91
2021/12/03 03:38:52;;;;;;;4.60;1.05;;;2.80;99.90;;;;;;4845029;29;20072;-91
2021/12/03 03:41:18;;;;;;;12.20;1.63;;;2.70;99.90;;;;;;4844874;29;20046;-91
2021/12/03 03:43:44;;;;;;;7.43;0.88;;;2.80;99.90;;;;;;4844972;29;20106;-91
2021/12/03 03:46:10;;;;;;;11.40;2.42;;;2.70;99.90;;;;;;4844810;29;20398;-90
2021/12/03 03:48:36;;;;;;;6.68;1.33;;;2.80;99.90;;;;;;4844552;29;20413;-90
2021/12/03 03:51:02;;;;;;;12.35;1.33;;;2.80;99.90;;;;;;4844626;29;20042;-90
2021/12/03 03:53:27;;;;;;;8.95;1.25;;;2.80;99.90;;;;;;4844584;29;20494;-89
2021/12/03 03:55:53;;;;;;;6.65;0.80;;;2.80;99.90;;;;;;4844452;29;20163;-89
2021/12/03 03:58:19;;;;;;;12.63;0.90;;;2.80;99.90;;;;;;4844749;29;20110;-90
2021/12/03 04:00:46;;;;;;;5.72;0.88;;;2.80;99.90;;;;;;4844429;29;20105;-90
2021/12/03 04:03:12;;;;;;;5.45;1.00;;;2.80;99.90;;;;;;4844595;29;20069;-90
2021/12/03 04:05:39;;;;;;;7.20;0.93;;;2.80;99.90;;;;;;4844201;29;20057;-90
2021/12/03 04:08:05;;;;;;;8.50;1.08;;;2.80;99.90;;;;;;4844198;29;20096;-89
2021/12/03 04:10:31;;;;;;;2.88;0.73;;;2.90;99.90;;;;;;4844315;29;20045;-89
2021/12/03 04:12:57;;;;;;;5.22;1.75;;;2.90;99.90;;;;;;4843696;29;20129;-88
2021/12/03 04:15:23;;;;;;;5.10;0.82;;;2.90;99.90;;;;;;4844188;29;20118;-89
2021/12/03 04:17:49;;;;;;;8.43;1.05;;;2.80;99.90;;;;;;4844016;29;20058;-89
2021/12/03 04:20:17;;;;;;;9.65;1.40;;;2.80;99.90;;;;;;4844008;29;20045;-89
2021/12/03 04:22:43;;;;;;;6.25;1.70;;;2.80;99.90;;;;;;4844024;29;20118;-90
2021/12/03 04:25:16;;;;;;;4.53;1.50;;;2.80;99.90;;;;;;4844068;29;20499;-90
2021/12/03 04:27:42;;;;;;;6.60;1.60;;;2.80;99.90;;;;;;4843999;29;20053;-89
2021/12/03 04:30:12;;;;;;;5.18;1.20;;;2.80;99.90;;;;;;4844385;29;20049;-89
2021/12/03 04:32:38;;;;;;;10.55;3.78;;;2.70;99.90;;;;;;4843661;29;20057;-89
2021/12/03 04:35:05;;;;;;;3.63;1.55;;;2.70;99.90;;;;;;4843788;29;20046;-89
2021/12/03 04:37:31;;;;;;;7.65;1.55;;;2.70;99.90;;;;;;4843757;29;20054;-89
2021/12/03 04:39:56;;;;;;;9.65;1.38;;;2.70;99.90;;;;;;4843744;29;20098;-90
2021/12/03 04:42:22;;;;;;;5.20;1.40;;;2.70;99.90;;;;;;4843971;29;20057;-90
2021/12/03 04:44:48;;;;;;;4.93;1.50;;;2.70;99.90;;;;;;4843459;29;20050;-88
2021/12/03 04:47:16;;;;;;;8.57;1.98;;;2.70;99.90;;;;;;4844076;29;20095;-89
2021/12/03 04:49:42;;;;;;;13.02;2.38;;;2.70;99.90;;;;;;4844040;29;20414;-89
2021/12/03 04:52:08;;;;;;;6.72;1.95;;;2.80;99.90;;;;;;4843504;29;20490;-89
2021/12/03 04:54:34;;;;;;;8.05;3.80;;;2.80;99.90;;;;;;4843516;29;20447;-89
2021/12/03 04:56:59;;;;;;;5.93;2.90;;;2.80;99.90;;;;;;4843442;29;20566;-90
2021/12/03 04:59:25;;;;;;;9.65;2.55;;;2.80;99.90;;;;;;4843557;29;20048;-90
2021/12/03 05:01:55;;;;;;;8.15;3.60;;;2.80;99.90;;;;;;4843204;29;20391;-89
2021/12/03 05:04:21;;;;;;;12.57;3.38;;;2.80;99.90;;;;;;4845623;29;20501;-90
2021/12/03 05:09:42;;;;;;;12.07;2.97;;;2.80;99.90;;;;;;4830580;29;20140;-90
2021/12/03 05:12:08;;;;;;;8.43;3.00;;;2.80;99.90;;;;;;4846219;29;20049;-89
2021/12/03 05:14:34;;;;;;;11.13;3.28;;;2.90;99.90;;;;;;4846189;29;20042;-91
2021/12/03 05:17:00;;;;;;;8.98;3.50;;;2.90;99.90;;;;;;4846257;29;20050;-91
2021/12/03 05:19:26;;;;;;;10.43;3.85;;;2.90;99.90;;;;;;4846625;29;20509;-91
2021/12/03 05:21:51;;;;;;;11.32;2.90;;;2.90;99.90;;;;;;4846177;29;20405;-90
2021/12/03 05:24:17;;;;;;;7.78;2.78;;;3.00;99.90;;;;;;4845110;29;20057;-89
2021/12/03 05:26:44;;;;;;;9.68;3.72;;;3.00;99.90;;;;;;4846156;29;20064;-89
2021/12/03 05:29:11;;;;;;;11.57;3.10;;;2.90;99.90;;;;;;4845895;29;20046;-90
2021/12/03 05:31:37;;;;;;;10.18;3.03;;;2.90;99.90;;;;;;4845951;29;20115;-90
2021/12/03 05:34:09;;;;;;;9.20;2.92;;;2.90;99.90;;;;;;4846181;29;20129;-90
2021/12/03 05:36:35;;;;;;;7.90;3.13;;;2.90;99.90;;;;;;4845643;29;20118;-90
2021/12/03 05:39:01;;;;;;;13.68;3.65;;;2.90;99.90;;;;;;4846169;29;20132;-89
2021/12/03 05:41:27;;;;;;;10.27;3.72;;;2.90;99.90;;;;;;4845490;29;20137;-89
2021/12/03 05:43:53;;;;;;;8.82;3.22;;;2.90;99.90;;;;;;4845460;29;20056;-89
2021/12/03 05:46:18;;;;;;;9.80;3.40;;;2.90;99.90;;;;;;4845870;29;20053;-88
2021/12/03 05:48:44;;;;;;;10.43;3.60;;;2.90;99.90;;;;;;4845754;29;20100;-88
2021/12/03 05:51:10;;;;;;;8.45;3.78;;;2.90;99.90;;;;;;4845679;29;20623;-89
2021/12/03 05:53:36;;;;;;;12.60;3.63;;;2.90;99.90;;;;;;4845575;29;20049;-89
2021/12/03 05:56:02;;;;;;;9.52;2.80;;;2.90;99.90;;;;;;4845737;29;20058;-91
2021/12/03 05:58:28;;;;;;;10.90;3.28;;;2.90;99.90;;;;;;4845616;29;20057;-90
2021/12/03 06:00:54;;;;;;;10.73;3.50;;;2.90;99.90;;;;;;4845796;29;20042;-89
2021/12/03 06:03:20;;;;;;;7.32;3.22;;;3.00;99.90;;;;;;4845304;29;20510;-90
2021/12/03 06:05:46;;;;;;;11.43;4.07;;;3.10;99.90;;;;;;4845048;29;20059;-90
2021/12/03 06:08:12;;;;;;;10.30;3.40;;;3.10;99.90;;;;;;4845103;29;20057;-89
2021/12/03 06:10:38;;;;;;;14.23;4.82;;;3.10;99.90;;;;;;4845198;29;20048;-89
2021/12/03 06:13:04;;;;;;;15.82;4.18;;;3.10;99.90;;;;;;4845160;29;20152;-89
2021/12/03 06:15:31;;;;;;;11.38;4.22;;;3.10;99.90;;;;;;4845157;29;20136;-89
2021/12/03 06:17:57;;;;;;;11.20;3.70;;;3.10;99.90;;;;;;4845412;29;20049;-88
2021/12/03 06:20:23;;;;;;;13.85;3.67;;;3.10;99.90;;;;;;4844864;29;20077;-88
2021/12/03 06:22:50;;;;;;;8.13;3.95;;;3.10;99.90;;;;;;4845186;29;20132;-88
2021/12/03 06:25:17;;;;;;;15.27;3.53;;;3.20;99.90;;;;;;4845303;29;20049;-88
2021/12/03 06:27:43;;;;;;;10.82;3.15;;;3.10;99.90;;;;;;4861661;29;20162;-88
2021/12/03 06:30:12;;;;;;;11.02;3.03;;;3.20;99.90;;;;;;4860512;29;20088;-89
2021/12/03 06:32:38;;;;;;;11.18;2.53;;;3.10;99.90;;;;;;4860235;29;20056;-89
2021/12/03 06:35:07;;;;;;;7.30;2.28;;;3.20;99.90;;;;;;4844837;29;20517;-89
2021/12/03 06:37:33;;;;;;;9.48;3.10;;;3.10;99.90;;;;;;4844968;29;20060;-88
2021/12/03 06:39:58;;;;;;;5.55;2.35;;;3.10;99.90;;;;;;4844740;29;20041;-89
2021/12/03 06:42:25;;;;;;;8.25;2.70;;;3.10;99.90;;;;;;4844646;29;20054;-88
2021/12/03 06:44:50;;;;;;;9.10;2.50;;;3.10;99.90;;;;;;4845047;29;20497;-89
2021/12/03 06:47:16;;;;;;;9.07;2.45;;;3.10;99.90;;;;;;4845030;29;20085;-88
2021/12/03 06:49:42;;;;;;;9.75;2.45;;;3.10;99.90;;;;;;4844604;29;20132;-90
2021/12/03 06:52:12;;;;;;;8.98;2.70;;;3.10;99.90;;;;;;4844677;29;20132;-89
2021/12/03 06:54:38;;;;;;;9.13;2.75;;;3.10;99.90;;;;;;4845193;29;20092;-89
2021/12/03 06:57:06;;;;;;;8.93;3.15;;;3.10;99.90;;;;;;4844836;29;20081;-90
2021/12/03 06:59:33;;;;;;;14.73;4.97;;;3.10;99.90;;;;;;4844800;29;20390;-91
2021/12/03 07:01:59;;;;;;;14.73;5.80;;;3.10;99.90;;;;;;4844773;29;20057;-90
2021/12/03 07:04:25;;;;;;;13.98;5.63;;;3.10;99.90;;;;;;4844699;29;20085;-91
2021/12/03 07:06:51;;;;;;;19.10;7.45;;;3.10;99.90;;;;;;4845543;29;20446;-89
2021/12/03 07:09:17;;;;;;;22.30;7.75;;;3.20;99.90;;;;;;4844759;29;20394;-88
2021/12/03 07:11:44;;;;;;;28.42;11.38;;;3.20;99.90;;;;;;4844634;29;20049;-89
2021/12/03 07:14:09;;;;;;;27.83;10.45;;;3.20;99.90;;;;;;4844771;29;20041;-90
2021/12/03 07:16:35;;;;;;;30.63;12.48;;;3.20;99.90;;;;;;4844567;29;20527;-89
2021/12/03 07:19:01;;;;;;;24.15;11.68;;;3.20;99.90;;;;;;4844486;29;20053;-90
2021/12/03 07:21:27;;;;;;;25.75;12.27;;;3.20;99.90;;;;;;4844329;29;20046;-89
2021/12/03 07:23:53;;;;;;;26.58;10.48;;;3.30;99.90;;;;;;4844929;29;20101;-89
2021/12/03 07:26:21;;;;;;;28.50;12.48;;;3.30;99.90;;;;;;4844475;29;20045;-89
2021/12/03 07:28:46;;;;;;;23.90;11.98;;;3.30;99.90;;;;;;4844529;29;20053;-90
2021/12/03 07:31:12;;;;;;;22.15;11.93;;;3.30;99.90;;;;;;4843984;29;20065;-89
2021/12/03 07:33:39;;;;;;;32.10;12.75;;;3.30;99.90;;;;;;4844123;29;20041;-88
2021/12/03 07:36:06;;;;;;;27.98;10.80;;;3.40;99.90;;;;;;4844011;29;20054;-90
2021/12/03 07:38:33;;;;;;;24.30;11.95;;;3.40;99.90;;;;;;4843355;29;20053;-90
2021/12/03 07:40:59;;;;;;;27.25;12.10;;;3.40;99.90;;;;;;4844300;29;20085;-85
2021/12/03 07:43:25;;;;;;;18.10;9.60;;;3.40;99.90;;;;;;4844010;29;20107;-88
2021/12/03 07:45:51;;;;;;;21.95;10.52;;;3.50;99.90;;;;;;4844383;29;20052;-89
2021/12/03 07:48:21;;;;;;;23.67;8.38;;;3.50;99.90;;;;;;4846089;29;20493;-86
2021/12/03 07:50:47;;;;;;;17.25;8.13;;;3.50;99.90;;;;;;4847424;29;20049;-86
2021/12/03 07:53:17;;;;;;;20.08;8.18;;;3.50;99.90;;;;;;4847436;29;20144;-90
2021/12/03 07:55:43;;;;;;;21.08;8.50;;;3.50;99.90;;;;;;4847404;29;20100;-90
2021/12/03 07:59:41;;;;;;;14.23;6.60;;;3.60;99.90;;;;;;4848438;29;20042;-95
2021/12/03 08:01:53;;;;;;;19.67;6.90;;;3.70;99.90;;;;;;4807861;29;20460;-90
2021/12/03 08:04:19;;;;;;;17.45;6.45;;;3.70;99.90;;;;;;4847297;29;20148;-90
2021/12/03 08:06:51;;;;;;;12.48;6.15;;;3.70;99.90;;;;;;4847204;29;20045;-90
2021/12/03 08:09:17;;;;;;;18.00;6.10;;;3.80;99.90;;;;;;4847466;29;20502;-90
2021/12/03 08:11:42;;;;;;;17.30;6.65;;;3.80;99.90;;;;;;4847733;29;20053;-90
2021/12/03 08:14:11;;;;;;;19.63;6.43;;;3.80;99.90;;;;;;4831688;29;20046;-96
2021/12/03 08:16:37;;;;;;;16.38;4.75;;;3.80;99.90;;;;;;4817119;29;20143;-90
2021/12/03 08:19:03;;;;;;;17.42;5.65;;;3.80;99.90;;;;;;4810454;29;20068;-90
2021/12/03 08:21:29;;;;;;;14.07;5.95;;;3.80;99.90;;;;;;4810660;29;20046;-91
2021/12/03 08:23:56;;;;;;;16.92;5.85;;;3.90;99.90;;;;;;4810898;29;20137;-90
2021/12/03 08:26:21;;;;;;;22.15;6.90;;;3.90;99.90;;;;;;4810539;29;20491;-89
2021/12/03 08:28:47;;;;;;;21.02;6.40;;;3.90;99.90;;;;;;4810302;29;20057;-91
2021/12/03 08:31:14;;;;;;;14.30;5.80;;;3.90;99.90;;;;;;4811145;29;20046;-91
2021/12/03 08:33:42;;;;;;;12.70;6.45;;;4.00;99.90;;;;;;4810386;29;20109;-93
2021/12/03 08:36:08;;;;;;;19.88;6.97;;;4.00;99.90;;;;;;4810346;29;20050;-91
2021/12/03 08:38:34;;;;;;;14.00;5.47;;;4.00;99.90;;;;;;4810493;29;20077;-93
2021/12/03 08:40:59;;;;;;;15.38;6.10;;;4.00;99.90;;;;;;4810377;29;20495;-93
2021/12/03 08:43:26;;;;;;;18.30;6.32;;;4.10;99.90;;;;;;4810840;29;20051;-91
2021/12/03 08:45:55;;;;;;;15.95;5.85;;;4.00;99.90;;;;;;4811007;29;20052;-94
2021/12/03 08:48:23;;;;;;;13.57;5.72;;;4.00;99.90;;;;;;4810768;29;20054;-94
2021/12/03 08:56:19;;;;;;;17.63;5.80;;;4.10;99.90;;;;;;4821943;29;20049;-93
2021/12/03 08:58:45;;;;;;;19.70;5.38;;;4.10;99.90;;;;;;4817862;29;20038;-94
2021/12/03 09:01:13;;;;;;;12.63;5.68;;;4.10;99.90;;;;;;4818396;29;20073;-93
2021/12/03 09:03:39;;;;;;;14.93;5.53;;;4.20;99.90;;;;;;4819735;29;20046;-92
2021/12/03 09:06:04;;;;;;;11.40;5.15;;;4.20;99.90;;;;;;4823217;29;20121;-93
2021/12/03 09:08:30;;;;;;;10.07;4.32;;;4.20;99.90;;;;;;4817979;29;20052;-93
2021/12/03 09:10:56;;;;;;;19.42;5.35;;;4.20;99.90;;;;;;4825191;29;20089;-92
2021/12/03 09:13:22;;;;;;;16.00;6.65;;;4.20;99.90;;;;;;4828432;29;20448;-93
2021/12/03 09:15:59;;;;;;;17.98;6.55;;;4.20;99.90;;;;;;4813025;29;20046;-93
2021/12/03 09:18:34;;;;;;;12.02;6.20;;;4.20;99.90;;;;;;4828151;29;20062;-92
2021/12/03 09:21:05;;;;;;;17.13;6.65;;;4.20;99.90;;;;;;4827897;29;20042;-93
2021/12/03 09:23:51;;;;;;;17.75;7.15;;;4.30;99.90;;;;;;4827881;29;20060;-92
2021/12/03 09:26:18;;;;;;;20.98;9.63;;;4.20;99.90;;;;;;4828153;29;20057;-92
2021/12/03 09:28:48;;;;;;;17.40;7.32;;;4.30;99.90;;;;;;4827864;29;20057;-92
2021/12/03 09:31:16;;;;;;;17.10;6.78;;;4.20;99.90;;;;;;4827354;29;20056;-92
2021/12/03 09:33:45;;;;;;;17.98;7.47;;;4.30;99.90;;;;;;4827709;29;20399;-91
2021/12/03 09:36:11;;;;;;;18.27;5.60;;;4.30;99.90;;;;;;4827579;29;20053;-92
2021/12/03 09:38:38;;;;;;;10.75;4.70;;;4.30;99.90;;;;;;4827775;29;20049;-91
2021/12/03 09:41:20;;;;;;;13.63;5.28;;;4.40;99.90;;;;;;4827819;29;20418;-91
2021/12/03 09:43:49;;;;;;;14.25;5.15;;;4.40;99.90;;;;;;4827548;29;20049;-92
2021/12/03 09:46:22;;;;;;;15.10;5.53;;;4.40;99.90;;;;;;4827173;29;20061;-90
2021/12/03 09:52:25;;;;;;;11.90;5.15;;;4.40;99.90;;;;;;4827114;29;20054;-90
2021/12/03 09:54:28;;;;;;;12.27;4.38;;;4.40;99.90;;;;;;4819896;29;20125;-91
2021/12/03 09:57:05;;;;;;;13.23;5.65;;;4.50;99.90;;;;;;4827423;29;20085;-86
2021/12/03 10:14:22;;;;;;;22.08;7.80;;;4.70;99.90;;;;;;4826733;29;20054;-89
2021/12/03 10:38:58;;;;;;;19.05;4.55;;;4.80;99.90;;;;;;4826608;29;20648;-89
2021/12/03 10:41:53;;;;;;;19.02;4.38;;;4.80;99.90;;;;;;4826723;29;20050;-90
2021/12/03 10:44:33;;;;;;;14.48;4.07;;;4.80;99.90;;;;;;4826067;29;20084;-88
2021/12/03 11:44:31;;;;;;;14.85;8.05;;;4.20;99.90;;;;;;4792154;29;20074;-89
2021/12/03 14:41:04;;;;;;;27.38;12.23;;;4.30;99.90;;;;;;4826937;29;20127;-87
2021/12/03 14:43:21;;;;;;;23.05;12.70;;;4.30;99.90;;;;;;4839929;29;20566;-86
2021/12/03 14:48:43;;;;;;;25.98;14.25;;;4.30;99.90;;;;;;4842576;29;20502;-87
2021/12/03 14:56:39;;;;;;;19.98;12.07;;;4.30;99.90;;;;;;4844089;29;20077;-85
2021/12/03 14:59:10;;;;;;;24.77;15.43;;;4.40;99.90;;;;;;4829824;29;20050;-86
2021/12/03 15:04:33;;;;;;;27.10;15.40;;;4.40;99.90;;;;;;4830062;29;20072;-85
2021/12/03 15:09:49;;;;;;;29.83;15.32;;;4.40;99.90;;;;;;4829861;29;20141;-85
2021/12/03 15:26:04;;;;;;;30.80;15.98;;;4.30;99.90;;;;;;4829953;29;20130;-84
2021/12/03 15:34:58;;;;;;;39.83;17.90;;;4.40;99.90;;;;;;4833165;29;20049;-86
2021/12/03 15:37:57;;;;;;;36.10;16.75;;;4.40;99.90;;;;;;4846077;29;20057;-85
2021/12/03 15:41:03;;;;;;;30.55;14.75;;;4.40;99.90;;;;;;4829656;29;20045;-85
2021/12/03 16:08:10;;;;;;;32.85;17.55;;;4.50;99.90;;;;;;4844912;29;20085;-85
2021/12/03 16:53:03;;;;;;;33.10;15.95;;;4.70;99.90;;;;;;4828398;29;20054;-91
2021/12/03 16:55:29;;;;;;;31.80;13.88;;;4.70;99.90;;;;;;4829581;29;20049;-91
2021/12/03 16:57:55;;;;;;;36.55;16.85;;;4.70;99.90;;;;;;4829190;29;20081;-90
2021/12/03 17:03:05;;;;;;;28.23;14.88;;;4.70;99.90;;;;;;4828185;29;20061;-91
2021/12/03 17:58:44;;;;;;;32.97;14.93;;;4.80;99.90;;;;;;4842248;29;20053;-89
2021/12/03 18:09:27;;;;;;;35.03;15.20;;;4.80;99.90;;;;;;4843156;29;20081;-88
2021/12/03 18:44:00;;;;;;;43.55;19.33;;;4.90;99.90;;;;;;4841899;29;20060;-90
2021/12/03 18:46:47;;;;;;;40.08;18.00;;;4.90;99.90;;;;;;4841928;29;20060;-90
2021/12/03 18:57:27;;;;;;;42.65;18.25;;;5.00;99.90;;;;;;4807438;29;20054;-88
2021/12/03 18:59:56;;;;;;;41.65;18.52;;;5.00;99.90;;;;;;4824641;29;20069;-88
2021/12/03 19:02:24;;;;;;;43.80;20.02;;;5.00;99.90;;;;;;4841899;29;20081;-88
2021/12/03 19:05:00;;;;;;;46.15;19.52;;;5.00;99.90;;;;;;4841572;29;20102;-88
2021/12/03 19:07:31;;;;;;;49.85;21.50;;;5.00;99.90;;;;;;4842749;29;20091;-88
2021/12/03 19:10:02;;;;;;;34.50;14.85;;;5.00;99.90;;;;;;4843011;29;20133;-88
2021/12/03 19:12:30;;;;;;;41.53;19.17;;;5.00;99.90;;;;;;4841515;29;20087;-87
2021/12/03 19:14:57;;;;;;;45.30;19.92;;;5.00;99.90;;;;;;4842769;29;20174;-88
2021/12/03 19:17:23;;;;;;;50.25;21.35;;;5.00;99.90;;;;;;4841519;29;20046;-88
2021/12/03 19:19:54;;;;;;;44.60;18.65;;;5.00;99.90;;;;;;4841612;29;20194;-88
2021/12/03 19:22:22;;;;;;;46.75;21.35;;;5.00;99.90;;;;;;4841555;29;20155;-89
2021/12/03 19:24:48;;;;;;;50.03;21.05;;;5.00;99.90;;;;;;4842725;29;20495;-89
2021/12/03 19:27:14;;;;;;;55.20;22.48;;;5.00;99.90;;;;;;4841421;29;20052;-88
2021/12/03 19:29:42;;;;;;;56.47;22.20;;;5.10;99.90;;;;;;4842625;29;20053;-88
2021/12/03 19:32:08;;;;;;;57.08;21.50;;;5.10;99.90;;;;;;4842562;29;20065;-88
2021/12/03 19:34:34;;;;;;;53.22;21.35;;;5.10;99.90;;;;;;4842611;29;20038;-88
2021/12/03 19:37:00;;;;;;;56.92;22.83;;;5.10;99.90;;;;;;4842520;29;20069;-87
2021/12/03 19:39:26;;;;;;;52.63;22.88;;;5.10;99.90;;;;;;4842517;29;20049;-87
2021/12/03 19:42:07;;;;;;;56.78;22.70;;;5.00;99.90;;;;;;4842624;29;20046;-88
2021/12/03 19:47:12;;;;;;;56.83;22.17;;;5.10;99.90;;;;;;4844731;29;20060;-89
2021/12/03 19:49:53;;;;;;;55.08;22.30;;;5.10;99.90;;;;;;4829843;29;20148;-89
2021/12/03 19:52:31;;;;;;;59.03;23.30;;;5.10;99.90;;;;;;4845873;29;20046;-88
2021/12/03 19:54:57;;;;;;;56.75;21.80;;;5.10;99.90;;;;;;4829317;29;20057;-88
2021/12/03 19:57:23;;;;;;;60.63;23.90;;;5.10;99.90;;;;;;4829322;29;20046;-88
2021/12/03 19:59:50;;;;;;;61.95;24.63;;;5.10;99.90;;;;;;4845773;29;20072;-88
2021/12/03 20:02:16;;;;;;;61.13;24.48;;;5.10;99.90;;;;;;4829525;29;20062;-88
2021/12/03 20:04:42;;;;;;;57.38;23.17;;;5.10;99.90;;;;;;4829301;29;20042;-87
2021/12/03 20:07:08;;;;;;;63.55;24.30;;;5.10;99.90;;;;;;4829317;29;20053;-87
2021/12/03 20:09:46;;;;;;;61.38;26.45;;;5.10;99.90;;;;;;4829276;29;20451;-88
2021/12/03 20:12:16;;;;;;;66.50;28.42;;;5.10;99.90;;;;;;4828991;29;20057;-88
2021/12/03 20:14:44;;;;;;;65.95;26.60;;;5.10;99.90;;;;;;4845555;29;20054;-88
2021/12/03 20:17:18;;;;;;;69.32;26.85;;;5.10;99.90;;;;;;4845540;29;20052;-88
2021/12/03 20:19:49;;;;;;;68.55;27.85;;;5.10;99.90;;;;;;4845386;29;20046;-87
2021/12/03 20:22:20;;;;;;;70.68;27.50;;;5.10;99.90;;;;;;4845471;29;20042;-88
2021/12/03 20:27:41;;;;;;;79.55;29.92;;;5.10;99.90;;;;;;4828865;29;20057;-89
2021/12/03 20:30:14;;;;;;;80.10;30.85;;;5.10;99.90;;;;;;4828831;29;20096;-87
2021/12/03 20:32:47;;;;;;;77.90;28.70;;;5.10;99.90;;;;;;4828595;29;20076;-88
2021/12/03 20:35:47;;;;;;;73.82;29.27;;;5.20;99.90;;;;;;4829447;29;20046;-87
2021/12/03 20:38:14;;;;;;;85.10;28.67;;;5.10;99.90;;;;;;4844901;29;20050;-87
2021/12/03 20:40:40;;;;;;;84.25;31.40;;;5.20;99.90;;;;;;4828735;29;20138;-87
2021/12/03 20:59:05;;;;;;;65.05;24.08;;;5.20;99.90;;;;;;4843692;29;20157;-88
2021/12/03 21:09:52;;;;;;;91.75;31.80;;;5.20;99.90;;;;;;4843419;29;20061;-89
2021/12/03 21:12:25;;;;;;;97.10;36.63;;;5.10;99.90;;;;;;4843322;29;20410;-90
2021/12/03 21:15:20;;;;;;;95.25;33.40;;;5.10;99.90;;;;;;4843194;29;20046;-88
2021/12/03 21:20:12;;;;;;;89.32;31.48;;;5.20;99.90;;;;;;4843372;29;20140;-88
2021/12/03 21:22:43;;;;;;;92.57;33.97;;;5.10;99.90;;;;;;4843234;29;20197;-89
2021/12/03 21:25:11;;;;;;;81.78;31.70;;;5.10;99.90;;;;;;4842961;29;20057;-89
2021/12/03 21:27:43;;;;;;;93.25;33.40;;;5.10;99.90;;;;;;4842974;29;20050;-89
2021/12/03 21:30:21;;;;;;;96.28;33.95;;;5.10;99.90;;;;;;4843198;29;20069;-88